Latest Conditions
At L.F.Wade Int. Airport
Recorded at 4:55 pm
Rain
Temp.: 
24°C/76°F
Humidity: 
86%
Wind: 
ESE 6KT
or 7mph
UV Index: 
-4
Island Observations
 
Observations
Monday, September 23, 2019

Observations are in local time and taken at least once an hour, or upon the start and end of specified events such as showers and thunderstorms.

Time Sky / Weather Wind Speed/Gusts Temp. R.H. Pressure
     knots (mph)  °C (°F)  %  mb / "Hg
 16:55 Overcast Rain ESE 6/0 (7/0) 24(76) 86 1017 / 30.02
 16:38 Overcast Rain ESE 5/0 (6/0) 24(76) 86 1017 / 30.02
 15:55 Overcast Rain SSE 10/0 (12/0) 24(76) 85 1017 / 30.04
 15:37 Overcast Rain S 11/0 (13/0) 24(76) 84 1017 / 30.04
 14:55 Overcast  S 9/0 (10/0) 25(77) 83 1018 / 30.05
 14:31 Overcast  S 12/0 (14/0) 25(76) 86 1018 / 30.05
 14:18 Overcast  S 10/0 (12/0) 25(76) 84 1018 / 30.06
 14:01 Overcast Showers S 9/0 (10/0) 24(76) 86 1018 / 30.06
 13:55 Overcast Showers SSW 10/0 (12/0) 24(76) 87 1018 / 30.06
 13:40 Overcast Showers SW 11/0 (13/0) 24(76) 87 1018 / 30.06
 13:26 Overcast Showers SSW 9/0 (10/0) 25(78) 82 1018 / 30.06
 12:55 Overcast  ESE 12/0 (14/0) 26(79) 78 1018 / 30.07
 11:55 Overcast  ESE 15/0 (17/0) 26(79) 77 1019 / 30.08
 10:55 Overcast  E 15/0 (17/0) 26(78) 75 1019 / 30.09
 09:55 Mostly Cloudy  E 14/0 (16/0) 25(78) 75 1019 / 30.09
 08:55 Overcast  E 15/0 (17/0) 25(77) 74 1019 / 30.09
 07:55 Overcast  E 15/0 (17/0) 24(76) 75 1019 / 30.09
 06:55 Overcast  E 16/0 (18/0) 24(76) 75 1018 / 30.07
 05:55 Overcast  E 12/0 (14/0) 24(75) 75 1019 / 30.08
 04:55 Overcast  E 13/0 (15/0) 24(75) 77 1018 / 30.07
 03:55 Overcast  E 12/0 (14/0) 24(75) 77 1018 / 30.07
 02:55 Mostly Cloudy  E 11/0 (13/0) 24(75) 75 1019 / 30.09
 01:55 Overcast  E 10/0 (12/0) 24(75) 74 1020 / 30.12
 00:55 Mostly Cloudy  E 10/0 (12/0) 24(75) 74 1020 / 30.13
 23:55 Overcast  E 9/0 (10/0) 24(75) 74 1020 / 30.13
 22:55 Overcast  E 10/0 (12/0) 24(76) 71 1021 / 30.14
 21:55 Mostly Cloudy  E 11/0 (13/0) 24(76) 71 1021 / 30.14
 20:55 Mostly Cloudy  E 10/0 (12/0) 24(76) 71 1020 / 30.13
 19:55 Mostly Cloudy  E 11/0 (13/0) 24(76) 70 1021 / 30.14
 18:55 Mostly Cloudy  E 11/0 (13/0) 25(76) 68 1021 / 30.14
 17:55 Mostly Cloudy  E 11/0 (13/0) 25(77) 66 1021 / 30.14
 16:55 Mostly Cloudy  E 10/0 (12/0) 26(78) 62 1020 / 30.13
 15:55 Mostly Cloudy  ENE 11/0 (13/0) 26(78) 63 1021 / 30.14
 14:55 Mostly Cloudy  E 12/0 (14/0) 26(79) 61 1021 / 30.16
 13:55 Mostly Cloudy  E 11/0 (13/0) 27(80) 59 1022 / 30.18
 12:55 Mostly Cloudy  E 12/0 (14/0) 26(79) 58 1022 / 30.18
 11:55 Mostly Cloudy  E 11/0 (13/0) 26(78) 59 1023 / 30.20
 10:55 Mostly Cloudy  ENE 11/0 (13/0) 26(79) 58 1023 / 30.21
 09:55 Mostly Cloudy  E 12/0 (14/0) 24(76) 62 1023 / 30.21
 08:55 Mostly Cloudy  ENE 9/0 (10/0) 24(76) 63 1023 / 30.20
 07:55 Mostly Cloudy  ENE 8/0 (9/0) 23(74) 68 1023 / 30.20
 06:55 Mostly Cloudy  ENE 7/0 (8/0) 23(73) 66 1022 / 30.19
 05:55 Mostly Cloudy  ENE 9/0 (10/0) 23(73) 65 1022 / 30.17
 04:55 Mostly Cloudy  NE 9/0 (10/0) 23(73) 65 1022 / 30.17
 03:55 Mostly Cloudy  NE 7/0 (8/0) 23(73) 65 1022 / 30.18
 02:55 Partly Cloudy  NE 7/0 (8/0) 23(74) 63 1022 / 30.19
 01:55 Mostly Cloudy  NE 5/0 (6/0) 23(74) 63 1023 / 30.20
 00:55 Mostly Cloudy  NE 6/0 (7/0) 23(74) 64 1023 / 30.20
 23:55 Mostly Cloudy  ENE 6/0 (7/0) 23(74) 66 1023 / 30.22
 22:55 Partly Cloudy  ENE 6/0 (7/0) 24(74) 65 1024 / 30.23
 21:55 Partly Cloudy  NE 7/0 (8/0) 24(75) 64 1023 / 30.22
 20:55 Partly Cloudy  NE 6/0 (7/0) 24(74) 64 1023 / 30.21
 19:55 Mostly Cloudy  NE 6/0 (7/0) 24(74) 61 1023 / 30.20
 18:55 Mostly Cloudy  ENE 7/0 (8/0) 24(75) 57 1022 / 30.19
 17:55 Partly Cloudy  ENE 7/0 (8/0) 25(77) 53 1023 / 30.20
 16:55 Mostly Cloudy  ENE 7/0 (8/0) 26(78) 52 1022 / 30.19
 15:55 Mostly Cloudy  ENE 8/0 (9/0) 25(78) 53 1022 / 30.19
 14:55 Partly Cloudy  NE 9/0 (10/0) 26(79) 51 1023 / 30.20
 13:55 Partly Cloudy  NNE 9/0 (10/0) 26(79) 52 1023 / 30.21
 12:55 Partly Cloudy  NNE 9/0 (10/0) 26(78) 50 1023 / 30.22
 11:55 Mostly Cloudy  NE 10/0 (12/0) 26(78) 50 1024 / 30.23
 10:55 Mostly Cloudy  NNE 9/0 (10/0) 26(78) 52 1024 / 30.25
 09:55 Mostly Cloudy  NNE 10/0 (12/0) 25(77) 53 1024 / 30.24
 08:55 Mostly Cloudy  NNE 8/0 (9/0) 24(75) 60 1024 / 30.23
 07:55 Mostly Cloudy  NNE 9/0 (10/0) 23(74) 60 1023 / 30.22
 06:55 Mostly Cloudy  NNE 11/0 (13/0) 23(73) 61 1022 / 30.19
 05:55 Mostly Cloudy  N 11/0 (13/0) 23(73) 61 1022 / 30.19
 04:55 Mostly Cloudy  N 10/0 (12/0) 23(74) 62 1023 / 30.20
 03:55 Mostly Cloudy  N 13/0 (15/0) 23(74) 62 1022 / 30.18
 02:55 Mostly Cloudy  N 11/0 (13/0) 23(74) 57 1022 / 30.18
 01:55 Mostly Cloudy  N 12/0 (14/0) 23(74) 59 1023 / 30.20
 00:55 Mostly Cloudy  N 10/0 (12/0) 23(73) 62 1022 / 30.19
 23:55 Mostly Cloudy  N 8/0 (9/0) 23(73) 62 1022 / 30.19
 22:55 Mostly Cloudy  N 10/0 (12/0) 23(74) 61 1022 / 30.19
 21:55 Mostly Cloudy  N 10/0 (12/0) 24(75) 59 1022 / 30.19
 20:55 Mostly Cloudy  N 8/0 (9/0) 24(75) 59 1022 / 30.19
 19:55 Mostly Cloudy  N 10/0 (12/0) 24(75) 64 1022 / 30.17
 18:55 Mostly Cloudy  N 10/0 (12/0) 24(76) 61 1021 / 30.15
 17:55 Mostly Cloudy  N 10/0 (12/0) 25(76) 64 1021 / 30.15
 16:55 Mostly Cloudy  NW 11/0 (13/0) 25(77) 60 1021 / 30.14
 15:55 Mostly Cloudy  NNW 8/0 (9/0) 26(80) 57 1020 / 30.13
 14:55 Mostly Cloudy  NW 10/0 (12/0) 26(78) 57 1020 / 30.11
 13:55 Mostly Cloudy  NW 9/0 (10/0) 26(79) 56 1020 / 30.12
 12:55 Mostly Cloudy  NW 7/0 (8/0) 26(78) 60 1020 / 30.13
 11:55 Mostly Cloudy  NNW 6/0 (7/0) 26(78) 60 1020 / 30.12
 10:55 Partly Cloudy  NNW 4/0 (5/0) 26(78) 61 1020 / 30.12
 09:55 Mostly Cloudy  N 4/0 (5/0) 25(78) 63 1019 / 30.10
 08:55 Mostly Cloudy  NNW 6/0 (7/0) 24(75) 67 1019 / 30.08
 07:55 Mostly Cloudy  NNW 4/0 (5/0) 24(74) 67 1018 / 30.07
 06:55 Partly Cloudy  N 3/0 (3/0) 23(74) 69 1018 / 30.06
 05:55 Partly Cloudy  N 3/0 (3/0) 23(74) 68 1017 / 30.04
 04:55 Mostly Cloudy  N 3/0 (3/0) 23(73) 68 1017 / 30.02
 03:55 Mostly Cloudy  N 4/0 (5/0) 23(73) 70 1016 / 30.01
 02:55 Mostly Cloudy  NNE 2/0 (2/0) 23(73) 68 1016 / 30.01
 01:55 Mostly Cloudy  NNE 4/0 (5/0) 24(74) 70 1016 / 30.01
 00:55 Mostly Cloudy  NNE 6/0 (7/0) 24(74) 70 1016 / 30.00
 23:55 Mostly Cloudy  NNE 4/0 (5/0) 24(74) 69 1016 / 29.99
 22:55 Mostly Cloudy  NNE 5/0 (6/0) 24(74) 70 1016 / 29.99
 21:55 Mostly Cloudy  N 7/0 (8/0) 24(75) 68 1015 / 29.97
 20:55 Mostly Cloudy  N 7/0 (8/0) 24(75) 72 1015 / 29.96
Island AWOS